DLH5P LIML-EDDS
Flight info
| Callsign | DLH5P |
|---|---|
| Flight time | 0h 43m |
| Altitude | 24000 |
| Route | RUVAB7AXNESTI6A/35 NESTI DCT TAGIP DCT SOTOV P66 DITBA DCT STG |
| Aircraft | A319/M-SDE3FGHIRWY/LB1 |
Departure
| Time | 2026-02-18 22:46 |
|---|---|
| Airport | Milano Linate Airport (LIML) |
Arrival
| Time | 2026-02-18 23:30 |
|---|---|
| Airport | Stuttgart Airport (EDDS) |
| Time | Latitude | Longitude | Altitude | Speed | Heading |
|---|---|---|---|---|---|
| 2026-02-18 22:20 | 45.45769 | 9.28066 | 363 ft | 0 kts | 91° |
| 2026-02-18 22:21 | 45.45809 | 9.28067 | 367 ft | 0 kts | 90° |
| 2026-02-18 22:39 | 45.45809 | 9.28087 | 389 ft | 4 kts | 90° |
| 2026-02-18 22:39 | 45.45808 | 9.28140 | 363 ft | 6 kts | 94° |
| 2026-02-18 22:39 | 45.45775 | 9.28161 | 363 ft | 6 kts | 179° |
| 2026-02-18 22:39 | 45.45726 | 9.28162 | 365 ft | 8 kts | 179° |
| 2026-02-18 22:40 | 45.45605 | 9.28159 | 363 ft | 10 kts | 182° |
| 2026-02-18 22:40 | 45.45527 | 9.28155 | 362 ft | 12 kts | 182° |
| 2026-02-18 22:40 | 45.45439 | 9.28154 | 364 ft | 14 kts | 181° |
| 2026-02-18 22:41 | 45.45242 | 9.28060 | 362 ft | 17 kts | 207° |
| 2026-02-18 22:41 | 45.45122 | 9.28057 | 360 ft | 18 kts | 176° |
| 2026-02-18 22:41 | 45.45011 | 9.28071 | 359 ft | 11 kts | 175° |
| 2026-02-18 22:42 | 45.44950 | 9.28020 | 359 ft | 11 kts | 244° |
| 2026-02-18 22:42 | 45.44912 | 9.27924 | 362 ft | 11 kts | 203° |
| 2026-02-18 22:42 | 45.44831 | 9.27943 | 358 ft | 12 kts | 176° |
| 2026-02-18 22:42 | 45.44740 | 9.27952 | 357 ft | 14 kts | 175° |
| 2026-02-18 22:43 | 45.44641 | 9.27963 | 360 ft | 15 kts | 175° |
| 2026-02-18 22:43 | 45.44534 | 9.27975 | 356 ft | 16 kts | 175° |
| 2026-02-18 22:43 | 45.44417 | 9.27986 | 359 ft | 17 kts | 176° |
| 2026-02-18 22:43 | 45.44294 | 9.28000 | 354 ft | 18 kts | 175° |
| 2026-02-18 22:44 | 45.44162 | 9.28015 | 353 ft | 20 kts | 175° |
| 2026-02-18 22:44 | 45.44022 | 9.28031 | 354 ft | 21 kts | 175° |
| 2026-02-18 22:44 | 45.43877 | 9.28047 | 351 ft | 21 kts | 175° |
| 2026-02-18 22:44 | 45.43724 | 9.28062 | 353 ft | 22 kts | 176° |
| 2026-02-18 22:45 | 45.43461 | 9.28062 | 352 ft | 12 kts | 229° |
| 2026-02-18 22:45 | 45.43445 | 9.27945 | 349 ft | 12 kts | 266° |
| 2026-02-18 22:45 | 45.43450 | 9.27835 | 359 ft | 10 kts | 307° |
| 2026-02-18 22:46 | 45.43533 | 9.27814 | 353 ft | 20 kts | 356° |
| 2026-02-18 22:46 | 45.43944 | 9.27769 | 350 ft | 98 kts | 356° |
| 2026-02-18 22:46 | 45.44846 | 9.27672 | 373 ft | 157 kts | 356° |
| 2026-02-18 22:46 | 45.45934 | 9.27542 | 1000 ft | 156 kts | 356° |
| 2026-02-18 22:47 | 45.47020 | 9.27448 | 1657 ft | 162 kts | 4° |
| 2026-02-18 22:47 | 45.48218 | 9.27579 | 2026 ft | 184 kts | 9° |
| 2026-02-18 22:47 | 45.49564 | 9.27835 | 2415 ft | 206 kts | 10° |
| 2026-02-18 22:47 | 45.51061 | 9.28132 | 2847 ft | 227 kts | 9° |
| 2026-02-18 22:48 | 45.52680 | 9.28516 | 3434 ft | 241 kts | 19° |
| 2026-02-18 22:48 | 45.54201 | 9.29558 | 4303 ft | 244 kts | 30° |
| 2026-02-18 22:48 | 45.55704 | 9.30723 | 5203 ft | 248 kts | 28° |
| 2026-02-18 22:48 | 45.57235 | 9.31890 | 6087 ft | 251 kts | 28° |
| 2026-02-18 22:49 | 45.60396 | 9.34283 | 7647 ft | 264 kts | 27° |
| 2026-02-18 22:49 | 45.62045 | 9.35526 | 8410 ft | 272 kts | 26° |
| 2026-02-18 22:49 | 45.63740 | 9.36804 | 9191 ft | 279 kts | 26° |
| 2026-02-18 22:50 | 45.65476 | 9.38110 | 10036 ft | 286 kts | 25° |
| 2026-02-18 22:50 | 45.67310 | 9.39475 | 10478 ft | 309 kts | 25° |
| 2026-02-18 22:50 | 45.69293 | 9.40939 | 10805 ft | 333 kts | 25° |
| 2026-02-18 22:50 | 45.71424 | 9.42512 | 11022 ft | 357 kts | 25° |
| 2026-02-18 22:51 | 45.73702 | 9.44196 | 11320 ft | 378 kts | 25° |
| 2026-02-18 22:51 | 45.76062 | 9.45952 | 11960 ft | 386 kts | 25° |
| 2026-02-18 22:51 | 45.78450 | 9.47739 | 12774 ft | 389 kts | 25° |
| 2026-02-18 22:51 | 45.80858 | 9.49547 | 13605 ft | 392 kts | 24° |
| 2026-02-18 22:52 | 45.83294 | 9.51373 | 14295 ft | 397 kts | 24° |
| 2026-02-18 22:52 | 45.85758 | 9.53218 | 14956 ft | 402 kts | 24° |
| 2026-02-18 22:52 | 45.88210 | 9.55056 | 15594 ft | 405 kts | 24° |
| 2026-02-18 22:52 | 45.90724 | 9.56941 | 16236 ft | 410 kts | 24° |
| 2026-02-18 22:53 | 45.95838 | 9.60778 | 17493 ft | 418 kts | 23° |
| 2026-02-18 22:53 | 45.98433 | 9.62731 | 18117 ft | 423 kts | 24° |
| 2026-02-18 22:53 | 46.01054 | 9.64710 | 18683 ft | 427 kts | 24° |
| 2026-02-18 22:54 | 46.03702 | 9.66709 | 19197 ft | 432 kts | 23° |
| 2026-02-18 22:54 | 46.06370 | 9.68722 | 19786 ft | 435 kts | 23° |
| 2026-02-18 22:54 | 46.09063 | 9.70754 | 20344 ft | 438 kts | 23° |
| 2026-02-18 22:54 | 46.11774 | 9.72802 | 20895 ft | 442 kts | 23° |
| 2026-02-18 22:55 | 46.14503 | 9.74870 | 21365 ft | 445 kts | 23° |
| 2026-02-18 22:55 | 46.16322 | 9.76252 | 21701 ft | 447 kts | 23° |
| 2026-02-18 22:55 | 46.19089 | 9.78352 | 22216 ft | 451 kts | 23° |
| 2026-02-18 22:55 | 46.21870 | 9.80465 | 22683 ft | 454 kts | 23° |
| 2026-02-18 22:56 | 46.24682 | 9.82604 | 23122 ft | 457 kts | 22° |
| 2026-02-18 22:56 | 46.27503 | 9.84752 | 23504 ft | 460 kts | 23° |
| 2026-02-18 22:56 | 46.30343 | 9.86921 | 23803 ft | 463 kts | 22° |
| 2026-02-18 22:56 | 46.33203 | 9.89108 | 23865 ft | 468 kts | 23° |
| 2026-02-18 22:57 | 46.39097 | 9.93599 | 24089 ft | 488 kts | 23° |
| 2026-02-18 22:57 | 46.42126 | 9.95914 | 24222 ft | 494 kts | 23° |
| 2026-02-18 22:57 | 46.45165 | 9.98245 | 24519 ft | 495 kts | 23° |
| 2026-02-18 22:58 | 46.48211 | 10.00595 | 24887 ft | 496 kts | 23° |
| 2026-02-18 22:58 | 46.51219 | 10.02918 | 25307 ft | 496 kts | 23° |
| 2026-02-18 22:58 | 46.54299 | 10.05297 | 25812 ft | 494 kts | 22° |
| 2026-02-18 22:58 | 46.57291 | 10.07604 | 26288 ft | 493 kts | 22° |
| 2026-02-18 22:59 | 46.60318 | 10.09941 | 26819 ft | 492 kts | 22° |
| 2026-02-18 22:59 | 46.63339 | 10.12278 | 27310 ft | 491 kts | 22° |
| 2026-02-18 22:59 | 46.66357 | 10.14616 | 27725 ft | 491 kts | 22° |
| 2026-02-18 22:59 | 46.69368 | 10.16950 | 27818 ft | 490 kts | 22° |
| 2026-02-18 23:00 | 46.72376 | 10.19285 | 27813 ft | 492 kts | 22° |
| 2026-02-18 23:00 | 46.75430 | 10.21652 | 27821 ft | 503 kts | 22° |
| 2026-02-18 23:00 | 46.78548 | 10.24067 | 27808 ft | 511 kts | 22° |
| 2026-02-18 23:00 | 46.81715 | 10.26525 | 27805 ft | 519 kts | 22° |
| 2026-02-18 23:01 | 46.87934 | 10.31388 | 29068 ft | 490 kts | 21° |
| 2026-02-18 23:01 | 46.90902 | 10.33735 | 29337 ft | 480 kts | 21° |
| 2026-02-18 23:01 | 46.93809 | 10.36032 | 28966 ft | 468 kts | 21° |
| 2026-02-18 23:02 | 46.96656 | 10.38276 | 28311 ft | 463 kts | 21° |
| 2026-02-18 23:02 | 46.99530 | 10.40521 | 27852 ft | 476 kts | 21° |
| 2026-02-18 23:02 | 47.02500 | 10.42824 | 27736 ft | 490 kts | 21° |
| 2026-02-18 23:02 | 47.05530 | 10.45184 | 27771 ft | 497 kts | 22° |
| 2026-02-18 23:03 | 47.08613 | 10.47598 | 27741 ft | 507 kts | 22° |
| 2026-02-18 23:03 | 47.11753 | 10.50068 | 27765 ft | 516 kts | 22° |
| 2026-02-18 23:03 | 47.14931 | 10.52579 | 27889 ft | 513 kts | 22° |
| 2026-02-18 23:03 | 47.17990 | 10.55024 | 28097 ft | 493 kts | 22° |
| 2026-02-18 23:04 | 47.20989 | 10.57428 | 28098 ft | 492 kts | 22° |
| 2026-02-18 23:04 | 47.27098 | 10.62285 | 28078 ft | 493 kts | 22° |
| 2026-02-18 23:04 | 47.30070 | 10.64598 | 28090 ft | 471 kts | 18° |
| 2026-02-18 23:05 | 47.36098 | 10.66945 | 28091 ft | 431 kts | 356° |
| 2026-02-18 23:05 | 47.39026 | 10.66972 | 28094 ft | 412 kts | 347° |
| 2026-02-18 23:05 | 47.41772 | 10.66365 | 28093 ft | 397 kts | 339° |
| 2026-02-18 23:06 | 47.44357 | 10.65212 | 28095 ft | 381 kts | 330° |
| 2026-02-18 23:06 | 47.46708 | 10.63600 | 28097 ft | 366 kts | 323° |
| 2026-02-18 23:06 | 47.50851 | 10.59517 | 28097 ft | 352 kts | 317° |
| 2026-02-18 23:07 | 47.54827 | 10.55454 | 28086 ft | 342 kts | 317° |
| 2026-02-18 23:07 | 47.58677 | 10.51505 | 28086 ft | 331 kts | 317° |
| 2026-02-18 23:08 | 47.62392 | 10.47664 | 28094 ft | 320 kts | 316° |
| 2026-02-18 23:08 | 47.65976 | 10.43944 | 28062 ft | 309 kts | 316° |
| 2026-02-18 23:09 | 47.69609 | 10.40142 | 27716 ft | 335 kts | 317° |
| 2026-02-18 23:09 | 47.71566 | 10.38082 | 27715 ft | 353 kts | 317° |
| 2026-02-18 23:09 | 47.73591 | 10.35954 | 27715 ft | 369 kts | 317° |
| 2026-02-18 23:10 | 47.75751 | 10.33735 | 27715 ft | 386 kts | 319° |
| 2026-02-18 23:10 | 47.78055 | 10.31531 | 27714 ft | 401 kts | 321° |
| 2026-02-18 23:10 | 47.80476 | 10.29327 | 27712 ft | 415 kts | 322° |
| 2026-02-18 23:10 | 47.82985 | 10.27090 | 27729 ft | 425 kts | 322° |
| 2026-02-18 23:11 | 47.85529 | 10.24822 | 27723 ft | 428 kts | 322° |
| 2026-02-18 23:11 | 47.88086 | 10.22521 | 27732 ft | 429 kts | 322° |
| 2026-02-18 23:11 | 47.90628 | 10.20204 | 27731 ft | 429 kts | 322° |
| 2026-02-18 23:11 | 47.93177 | 10.17855 | 27731 ft | 431 kts | 322° |
| 2026-02-18 23:12 | 47.95725 | 10.15488 | 27724 ft | 432 kts | 321° |
| 2026-02-18 23:12 | 47.98268 | 10.13115 | 27729 ft | 432 kts | 321° |
| 2026-02-18 23:12 | 48.00820 | 10.10728 | 27734 ft | 433 kts | 322° |
| 2026-02-18 23:12 | 48.03375 | 10.08336 | 27512 ft | 434 kts | 322° |
| 2026-02-18 23:13 | 48.08510 | 10.03537 | 26996 ft | 436 kts | 322° |
| 2026-02-18 23:13 | 48.11084 | 10.01131 | 26740 ft | 437 kts | 322° |
| 2026-02-18 23:13 | 48.13660 | 9.98720 | 26152 ft | 434 kts | 322° |
| 2026-02-18 23:14 | 48.16209 | 9.96341 | 25314 ft | 430 kts | 322° |
| 2026-02-18 23:14 | 48.18741 | 9.93979 | 24494 ft | 427 kts | 323° |
| 2026-02-18 23:14 | 48.21224 | 9.91655 | 23581 ft | 427 kts | 323° |
| 2026-02-18 23:14 | 48.23761 | 9.89306 | 22394 ft | 431 kts | 324° |
| 2026-02-18 23:15 | 48.26156 | 9.87168 | 21535 ft | 431 kts | 325° |
| 2026-02-18 23:15 | 48.28739 | 9.84922 | 20664 ft | 428 kts | 326° |
| 2026-02-18 23:15 | 48.31314 | 9.82707 | 19799 ft | 426 kts | 326° |
| 2026-02-18 23:15 | 48.33878 | 9.80498 | 18952 ft | 424 kts | 327° |
| 2026-02-18 23:16 | 48.36430 | 9.78281 | 18109 ft | 422 kts | 327° |
| 2026-02-18 23:16 | 48.38961 | 9.76063 | 17218 ft | 420 kts | 326° |
| 2026-02-18 23:16 | 48.41471 | 9.73852 | 16438 ft | 415 kts | 326° |
| 2026-02-18 23:16 | 48.43952 | 9.71658 | 15666 ft | 412 kts | 326° |
| 2026-02-18 23:17 | 48.48596 | 9.66831 | 14197 ft | 399 kts | 311° |
| 2026-02-18 23:17 | 48.50337 | 9.63636 | 13513 ft | 391 kts | 300° |
| 2026-02-18 23:17 | 48.51588 | 9.60045 | 12776 ft | 384 kts | 289° |
| 2026-02-18 23:18 | 48.52329 | 9.56223 | 12111 ft | 376 kts | 278° |
| 2026-02-18 23:18 | 48.52619 | 9.52332 | 11440 ft | 370 kts | 272° |
| 2026-02-18 23:18 | 48.52830 | 9.48493 | 10906 ft | 362 kts | 272° |
| 2026-02-18 23:18 | 48.53033 | 9.44822 | 10775 ft | 341 kts | 272° |
| 2026-02-18 23:19 | 48.53222 | 9.41399 | 10647 ft | 323 kts | 272° |
| 2026-02-18 23:19 | 48.53400 | 9.38112 | 10523 ft | 306 kts | 272° |
| 2026-02-18 23:19 | 48.53567 | 9.34989 | 10370 ft | 292 kts | 272° |
| 2026-02-18 23:19 | 48.53722 | 9.32013 | 10243 ft | 277 kts | 272° |
| 2026-02-18 23:20 | 48.53868 | 9.29187 | 10014 ft | 265 kts | 272° |
| 2026-02-18 23:20 | 48.54009 | 9.26457 | 9736 ft | 259 kts | 271° |
| 2026-02-18 23:20 | 48.54151 | 9.23753 | 9570 ft | 258 kts | 272° |
| 2026-02-18 23:20 | 48.54292 | 9.21062 | 9434 ft | 257 kts | 272° |
| 2026-02-18 23:21 | 48.54564 | 9.15784 | 9164 ft | 242 kts | 272° |
| 2026-02-18 23:21 | 48.54693 | 9.13308 | 9013 ft | 232 kts | 271° |
| 2026-02-18 23:21 | 48.54818 | 9.10862 | 8606 ft | 234 kts | 271° |
| 2026-02-18 23:22 | 48.54938 | 9.08421 | 8254 ft | 232 kts | 271° |
| 2026-02-18 23:22 | 48.55057 | 9.06021 | 7781 ft | 228 kts | 271° |
| 2026-02-18 23:22 | 48.55176 | 9.03651 | 7296 ft | 224 kts | 271° |
| 2026-02-18 23:22 | 48.55295 | 9.01327 | 6862 ft | 220 kts | 271° |
| 2026-02-18 23:23 | 48.55411 | 8.99051 | 6444 ft | 216 kts | 271° |
| 2026-02-18 23:23 | 48.55726 | 8.96842 | 6024 ft | 217 kts | 286° |
| 2026-02-18 23:23 | 48.56461 | 8.94844 | 5576 ft | 220 kts | 303° |
| 2026-02-18 23:23 | 48.57552 | 8.93284 | 5452 ft | 211 kts | 319° |
| 2026-02-18 23:24 | 48.58816 | 8.92294 | 5400 ft | 201 kts | 334° |
| 2026-02-18 23:24 | 48.60125 | 8.91720 | 5312 ft | 190 kts | 339° |
| 2026-02-18 23:24 | 48.61422 | 8.91604 | 5219 ft | 186 kts | 5° |
| 2026-02-18 23:24 | 48.62583 | 8.92306 | 5145 ft | 179 kts | 32° |
| 2026-02-18 23:25 | 48.63856 | 8.95282 | 4833 ft | 169 kts | 77° |
| 2026-02-18 23:25 | 48.64184 | 8.96997 | 4595 ft | 170 kts | 76° |
| 2026-02-18 23:25 | 48.64515 | 8.98717 | 4337 ft | 171 kts | 76° |
| 2026-02-18 23:26 | 48.64846 | 9.00440 | 4064 ft | 170 kts | 77° |
| 2026-02-18 23:26 | 48.65173 | 9.02140 | 3825 ft | 165 kts | 77° |
| 2026-02-18 23:26 | 48.65485 | 9.03770 | 3593 ft | 158 kts | 77° |
| 2026-02-18 23:26 | 48.65786 | 9.05333 | 3383 ft | 152 kts | 77° |
| 2026-02-18 23:27 | 48.66078 | 9.06853 | 3178 ft | 148 kts | 78° |
| 2026-02-18 23:27 | 48.66363 | 9.08339 | 2970 ft | 146 kts | 78° |
| 2026-02-18 23:27 | 48.66640 | 9.09795 | 2756 ft | 142 kts | 77° |
| 2026-02-18 23:27 | 48.66912 | 9.11225 | 2550 ft | 141 kts | 76° |
| 2026-02-18 23:28 | 48.67179 | 9.12642 | 2354 ft | 140 kts | 75° |
| 2026-02-18 23:28 | 48.67444 | 9.14046 | 2159 ft | 138 kts | 74° |
| 2026-02-18 23:28 | 48.67706 | 9.15435 | 2013 ft | 135 kts | 74° |
| 2026-02-18 23:28 | 48.67968 | 9.16807 | 1845 ft | 136 kts | 75° |
| 2026-02-18 23:29 | 48.68478 | 9.19484 | 1473 ft | 132 kts | 75° |
| 2026-02-18 23:29 | 48.68727 | 9.20815 | 1305 ft | 129 kts | 75° |
| 2026-02-18 23:29 | 48.68941 | 9.21947 | 1287 ft | 92 kts | 74° |
| 2026-02-18 23:30 | 48.69071 | 9.22631 | 1286 ft | 46 kts | 74° |
| 2026-02-18 23:30 | 48.69155 | 9.22911 | 1287 ft | 19 kts | 57° |
| 2026-02-18 23:30 | 48.69220 | 9.23027 | 1285 ft | 11 kts | 44° |
| 2026-02-18 23:30 | 48.69275 | 9.23106 | 1288 ft | 11 kts | 43° |
| 2026-02-18 23:31 | 48.69335 | 9.23162 | 1287 ft | 10 kts | 359° |
| 2026-02-18 23:31 | 48.69396 | 9.23121 | 1285 ft | 10 kts | 317° |
| 2026-02-18 23:31 | 48.69405 | 9.23027 | 1285 ft | 9 kts | 257° |
| 2026-02-18 23:31 | 48.69387 | 9.22932 | 1287 ft | 10 kts | 254° |
| 2026-02-18 23:32 | 48.69366 | 9.22816 | 1285 ft | 13 kts | 253° |
| 2026-02-18 23:32 | 48.69337 | 9.22671 | 1285 ft | 16 kts | 253° |
| 2026-02-18 23:32 | 48.69303 | 9.22491 | 1288 ft | 20 kts | 254° |
| 2026-02-18 23:32 | 48.69262 | 9.22278 | 1287 ft | 22 kts | 252° |
| 2026-02-18 23:33 | 48.69174 | 9.21810 | 1287 ft | 23 kts | 254° |
| 2026-02-18 23:33 | 48.69132 | 9.21588 | 1288 ft | 21 kts | 254° |
| 2026-02-18 23:33 | 48.69092 | 9.21378 | 1285 ft | 21 kts | 254° |
| 2026-02-18 23:34 | 48.69053 | 9.21168 | 1285 ft | 21 kts | 254° |
| 2026-02-18 23:34 | 48.69012 | 9.20953 | 1288 ft | 22 kts | 253° |
| 2026-02-18 23:34 | 48.68970 | 9.20735 | 1287 ft | 16 kts | 254° |
| 2026-02-18 23:34 | 48.68976 | 9.20608 | 1285 ft | 14 kts | 310° |
| 2026-02-18 23:35 | 48.69047 | 9.20497 | 1287 ft | 14 kts | 314° |
| 2026-02-18 23:35 | 48.69046 | 9.20356 | 1289 ft | 15 kts | 253° |
| 2026-02-18 23:35 | 48.69015 | 9.20190 | 1288 ft | 18 kts | 254° |
| 2026-02-18 23:35 | 48.68970 | 9.20003 | 1286 ft | 20 kts | 238° |
| 2026-02-18 23:36 | 48.68890 | 9.19816 | 1287 ft | 22 kts | 241° |
| 2026-02-18 23:36 | 48.68852 | 9.19634 | 1285 ft | 15 kts | 258° |
| 2026-02-18 23:36 | 48.68824 | 9.19480 | 1285 ft | 14 kts | 253° |
| 2026-02-18 23:36 | 48.68813 | 9.19403 | 1285 ft | 5 kts | 282° |
| 2026-02-18 23:37 | 48.68863 | 9.19367 | 1289 ft | 1 kts | 344° |
| 2026-02-18 23:37 | 48.68875 | 9.19363 | 1287 ft | 2 kts | 345° |
| 2026-02-18 23:37 | 48.68876 | 9.19362 | 1285 ft | 0 kts | 345° |